sensor_id;sensor_type;location;lat;lon;timestamp;P1;durP1;ratioP1;P2;durP2;ratioP2
75984;SDS011;65033;44.660;37.758;2023-03-03T00:00:09;5.30;;;4.72;;
75984;SDS011;65033;44.660;37.758;2023-03-03T00:01:15;4.82;;;4.30;;
75984;SDS011;65033;44.660;37.758;2023-03-03T00:02:19;4.55;;;4.15;;
75984;SDS011;65033;44.660;37.758;2023-03-03T00:03:23;4.72;;;4.22;;
75984;SDS011;65033;44.660;37.758;2023-03-03T00:04:28;4.90;;;4.30;;
75984;SDS011;65033;44.660;37.758;2023-03-03T00:05:32;4.63;;;4.00;;
75984;SDS011;65033;44.660;37.758;2023-03-03T00:06:35;5.40;;;4.60;;
75984;SDS011;65033;44.660;37.758;2023-03-03T00:07:39;4.80;;;4.30;;
75984;SDS011;65033;44.660;37.758;2023-03-03T00:08:44;4.57;;;4.18;;
75984;SDS011;65033;44.660;37.758;2023-03-03T00:09:47;4.43;;;4.03;;
75984;SDS011;65033;44.660;37.758;2023-03-03T00:10:51;4.47;;;4.07;;
75984;SDS011;65033;44.660;37.758;2023-03-03T00:11:56;5.18;;;4.30;;
75984;SDS011;65033;44.660;37.758;2023-03-03T00:13:03;4.88;;;4.03;;
75984;SDS011;65033;44.660;37.758;2023-03-03T00:14:17;5.07;;;4.30;;
75984;SDS011;65033;44.660;37.758;2023-03-03T00:15:24;4.63;;;4.07;;
75984;SDS011;65033;44.660;37.758;2023-03-03T00:16:29;4.82;;;4.20;;
75984;SDS011;65033;44.660;37.758;2023-03-03T00:17:36;4.93;;;4.30;;
75984;SDS011;65033;44.660;37.758;2023-03-03T00:18:40;6.28;;;4.55;;
75984;SDS011;65033;44.660;37.758;2023-03-03T00:19:45;5.10;;;4.50;;
75984;SDS011;65033;44.660;37.758;2023-03-03T00:20:50;4.32;;;3.92;;
75984;SDS011;65033;44.660;37.758;2023-03-03T00:21:55;5.15;;;4.20;;
75984;SDS011;65033;44.660;37.758;2023-03-03T00:24:22;5.90;;;4.43;;
75984;SDS011;65033;44.660;37.758;2023-03-03T00:25:27;5.15;;;4.65;;
75984;SDS011;65033;44.660;37.758;2023-03-03T00:26:33;4.85;;;4.15;;
75984;SDS011;65033;44.660;37.758;2023-03-03T00:27:39;4.80;;;4.30;;
75984;SDS011;65033;44.660;37.758;2023-03-03T00:28:45;4.93;;;4.43;;
75984;SDS011;65033;44.660;37.758;2023-03-03T00:29:49;5.10;;;4.20;;
75984;SDS011;65033;44.660;37.758;2023-03-03T00:30:57;4.60;;;4.20;;
75984;SDS011;65033;44.660;37.758;2023-03-03T00:33:29;5.45;;;4.43;;
75984;SDS011;65033;44.660;37.758;2023-03-03T00:34:34;4.13;;;3.75;;
75984;SDS011;65033;44.660;37.758;2023-03-03T00:35:38;4.70;;;4.30;;
75984;SDS011;65033;44.660;37.758;2023-03-03T00:36:43;4.35;;;3.95;;
75984;SDS011;65033;44.660;37.758;2023-03-03T00:37:46;5.13;;;4.15;;
75984;SDS011;65033;44.660;37.758;2023-03-03T00:38:57;5.03;;;4.53;;
75984;SDS011;65033;44.660;37.758;2023-03-03T00:40:18;5.07;;;4.43;;
75984;SDS011;65033;44.660;37.758;2023-03-03T00:41:24;4.68;;;4.28;;
75984;SDS011;65033;44.660;37.758;2023-03-03T00:42:29;4.53;;;4.13;;
75984;SDS011;65033;44.660;37.758;2023-03-03T00:43:35;4.30;;;3.90;;
75984;SDS011;65033;44.660;37.758;2023-03-03T00:44:41;4.88;;;4.20;;
75984;SDS011;65033;44.660;37.758;2023-03-03T00:45:45;4.30;;;3.90;;
75984;SDS011;65033;44.660;37.758;2023-03-03T00:46:50;5.38;;;4.72;;
75984;SDS011;65033;44.660;37.758;2023-03-03T00:47:56;5.38;;;4.47;;
75984;SDS011;65033;44.660;37.758;2023-03-03T00:49:00;4.85;;;4.22;;
75984;SDS011;65033;44.660;37.758;2023-03-03T00:51:41;4.80;;;4.30;;
75984;SDS011;65033;44.660;37.758;2023-03-03T00:52:50;4.78;;;4.28;;
75984;SDS011;65033;44.660;37.758;2023-03-03T00:54:01;4.93;;;4.40;;
75984;SDS011;65033;44.660;37.758;2023-03-03T00:55:04;4.85;;;4.25;;
75984;SDS011;65033;44.660;37.758;2023-03-03T00:56:09;5.65;;;4.35;;
75984;SDS011;65033;44.660;37.758;2023-03-03T00:57:12;5.65;;;4.75;;
75984;SDS011;65033;44.660;37.758;2023-03-03T00:58:16;4.43;;;4.03;;
75984;SDS011;65033;44.660;37.758;2023-03-03T00:59:23;4.82;;;4.20;;
75984;SDS011;65033;44.660;37.758;2023-03-03T01:00:28;4.88;;;4.20;;
75984;SDS011;65033;44.660;37.758;2023-03-03T01:01:34;5.30;;;4.57;;
75984;SDS011;65033;44.660;37.758;2023-03-03T01:02:38;5.05;;;4.13;;
75984;SDS011;65033;44.660;37.758;2023-03-03T01:03:42;5.20;;;4.70;;
75984;SDS011;65033;44.660;37.758;2023-03-03T01:04:47;4.63;;;4.22;;
75984;SDS011;65033;44.660;37.758;2023-03-03T01:05:52;5.03;;;4.53;;
75984;SDS011;65033;44.660;37.758;2023-03-03T01:06:56;5.32;;;4.70;;
75984;SDS011;65033;44.660;37.758;2023-03-03T01:08:00;5.38;;;4.53;;
75984;SDS011;65033;44.660;37.758;2023-03-03T01:09:03;5.32;;;4.45;;
75984;SDS011;65033;44.660;37.758;2023-03-03T01:10:09;6.53;;;4.20;;
75984;SDS011;65033;44.660;37.758;2023-03-03T01:11:14;5.22;;;4.72;;
75984;SDS011;65033;44.660;37.758;2023-03-03T01:12:22;4.75;;;4.25;;
75984;SDS011;65033;44.660;37.758;2023-03-03T01:13:27;5.60;;;4.25;;
75984;SDS011;65033;44.660;37.758;2023-03-03T01:14:32;4.47;;;4.07;;
75984;SDS011;65033;44.660;37.758;2023-03-03T01:15:37;4.93;;;4.43;;
75984;SDS011;65033;44.660;37.758;2023-03-03T01:16:41;4.65;;;4.18;;
75984;SDS011;65033;44.660;37.758;2023-03-03T01:17:45;5.20;;;4.57;;
75984;SDS011;65033;44.660;37.758;2023-03-03T01:18:48;4.68;;;4.03;;
75984;SDS011;65033;44.660;37.758;2023-03-03T01:19:52;4.85;;;4.30;;
75984;SDS011;65033;44.660;37.758;2023-03-03T01:20:55;4.97;;;4.50;;
75984;SDS011;65033;44.660;37.758;2023-03-03T01:21:59;4.50;;;4.05;;
75984;SDS011;65033;44.660;37.758;2023-03-03T01:23:03;5.10;;;4.30;;
75984;SDS011;65033;44.660;37.758;2023-03-03T01:24:08;4.97;;;4.38;;
75984;SDS011;65033;44.660;37.758;2023-03-03T01:25:12;4.80;;;4.30;;
75984;SDS011;65033;44.660;37.758;2023-03-03T01:26:15;4.68;;;4.28;;
75984;SDS011;65033;44.660;37.758;2023-03-03T01:27:19;5.82;;;4.65;;
75984;SDS011;65033;44.660;37.758;2023-03-03T01:28:22;5.65;;;4.30;;
75984;SDS011;65033;44.660;37.758;2023-03-03T01:29:26;5.35;;;3.97;;
75984;SDS011;65033;44.660;37.758;2023-03-03T01:30:29;4.95;;;4.25;;
75984;SDS011;65033;44.660;37.758;2023-03-03T01:31:34;4.80;;;4.30;;
75984;SDS011;65033;44.660;37.758;2023-03-03T01:32:38;4.30;;;3.90;;
75984;SDS011;65033;44.660;37.758;2023-03-03T01:33:41;4.70;;;4.30;;
75984;SDS011;65033;44.660;37.758;2023-03-03T01:34:45;4.68;;;4.13;;
75984;SDS011;65033;44.660;37.758;2023-03-03T01:35:48;5.18;;;4.32;;
75984;SDS011;65033;44.660;37.758;2023-03-03T01:36:52;4.45;;;4.05;;
75984;SDS011;65033;44.660;37.758;2023-03-03T01:37:55;5.15;;;4.45;;
75984;SDS011;65033;44.660;37.758;2023-03-03T01:38:59;4.63;;;4.22;;
75984;SDS011;65033;44.660;37.758;2023-03-03T01:40:04;4.55;;;4.13;;
75984;SDS011;65033;44.660;37.758;2023-03-03T01:41:09;5.40;;;4.90;;
75984;SDS011;65033;44.660;37.758;2023-03-03T01:42:13;4.55;;;4.13;;
75984;SDS011;65033;44.660;37.758;2023-03-03T01:43:18;5.45;;;4.50;;
75984;SDS011;65033;44.660;37.758;2023-03-03T01:44:21;4.78;;;4.32;;
75984;SDS011;65033;44.660;37.758;2023-03-03T01:45:26;5.13;;;4.00;;
75984;SDS011;65033;44.660;37.758;2023-03-03T01:46:39;4.55;;;4.15;;
75984;SDS011;65033;44.660;37.758;2023-03-03T01:47:53;4.82;;;4.35;;
75984;SDS011;65033;44.660;37.758;2023-03-03T01:49:02;5.38;;;4.40;;
75984;SDS011;65033;44.660;37.758;2023-03-03T01:50:09;4.88;;;4.38;;
75984;SDS011;65033;44.660;37.758;2023-03-03T01:51:17;4.57;;;4.18;;
75984;SDS011;65033;44.660;37.758;2023-03-03T01:53:32;4.78;;;4.00;;
75984;SDS011;65033;44.660;37.758;2023-03-03T01:54:40;4.90;;;4.40;;
75984;SDS011;65033;44.660;37.758;2023-03-03T01:55:47;4.78;;;4.22;;
75984;SDS011;65033;44.660;37.758;2023-03-03T01:56:55;5.75;;;4.38;;
75984;SDS011;65033;44.660;37.758;2023-03-03T01:58:02;5.00;;;4.50;;
75984;SDS011;65033;44.660;37.758;2023-03-03T01:59:10;5.10;;;4.60;;
75984;SDS011;65033;44.660;37.758;2023-03-03T02:00:17;4.78;;;4.10;;
75984;SDS011;65033;44.660;37.758;2023-03-03T02:01:23;4.50;;;4.03;;
75984;SDS011;65033;44.660;37.758;2023-03-03T02:02:34;4.43;;;4.03;;
75984;SDS011;65033;44.660;37.758;2023-03-03T02:03:38;4.75;;;3.95;;
75984;SDS011;65033;44.660;37.758;2023-03-03T02:04:42;5.30;;;4.30;;
75984;SDS011;65033;44.660;37.758;2023-03-03T02:05:46;4.35;;;3.95;;
75984;SDS011;65033;44.660;37.758;2023-03-03T02:06:51;4.60;;;4.20;;
75984;SDS011;65033;44.660;37.758;2023-03-03T02:07:56;4.47;;;4.07;;
75984;SDS011;65033;44.660;37.758;2023-03-03T02:09:01;5.30;;;4.40;;
75984;SDS011;65033;44.660;37.758;2023-03-03T02:10:08;5.22;;;4.68;;
75984;SDS011;65033;44.660;37.758;2023-03-03T02:11:13;4.75;;;4.25;;
75984;SDS011;65033;44.660;37.758;2023-03-03T02:12:18;5.18;;;4.70;;
75984;SDS011;65033;44.660;37.758;2023-03-03T02:13:24;4.28;;;3.85;;
75984;SDS011;65033;44.660;37.758;2023-03-03T02:14:29;5.30;;;4.10;;
75984;SDS011;65033;44.660;37.758;2023-03-03T02:15:33;5.00;;;4.47;;
75984;SDS011;65033;44.660;37.758;2023-03-03T02:16:39;5.28;;;4.78;;
75984;SDS011;65033;44.660;37.758;2023-03-03T02:17:45;4.82;;;4.18;;
75984;SDS011;65033;44.660;37.758;2023-03-03T02:18:49;5.15;;;4.47;;
75984;SDS011;65033;44.660;37.758;2023-03-03T02:19:54;4.72;;;4.32;;
75984;SDS011;65033;44.660;37.758;2023-03-03T02:21:05;5.28;;;4.60;;
75984;SDS011;65033;44.660;37.758;2023-03-03T02:22:11;4.75;;;4.10;;
75984;SDS011;65033;44.660;37.758;2023-03-03T02:23:17;4.97;;;4.20;;
75984;SDS011;65033;44.660;37.758;2023-03-03T02:24:26;4.82;;;4.18;;
75984;SDS011;65033;44.660;37.758;2023-03-03T02:26:44;4.82;;;4.07;;
75984;SDS011;65033;44.660;37.758;2023-03-03T02:27:47;5.00;;;4.50;;
75984;SDS011;65033;44.660;37.758;2023-03-03T02:28:51;4.85;;;4.38;;
75984;SDS011;65033;44.660;37.758;2023-03-03T02:29:54;4.55;;;4.15;;
75984;SDS011;65033;44.660;37.758;2023-03-03T02:30:58;4.28;;;3.88;;
75984;SDS011;65033;44.660;37.758;2023-03-03T02:32:02;4.60;;;4.20;;
75984;SDS011;65033;44.660;37.758;2023-03-03T02:33:06;5.15;;;4.35;;
75984;SDS011;65033;44.660;37.758;2023-03-03T02:34:09;4.50;;;4.10;;
75984;SDS011;65033;44.660;37.758;2023-03-03T02:35:25;4.68;;;4.22;;
75984;SDS011;65033;44.660;37.758;2023-03-03T02:36:31;4.60;;;3.95;;
75984;SDS011;65033;44.660;37.758;2023-03-03T02:37:36;4.57;;;4.00;;
75984;SDS011;65033;44.660;37.758;2023-03-03T02:38:40;4.38;;;3.97;;
75984;SDS011;65033;44.660;37.758;2023-03-03T02:39:49;4.75;;;4.25;;
75984;SDS011;65033;44.660;37.758;2023-03-03T02:40:57;5.03;;;4.53;;
75984;SDS011;65033;44.660;37.758;2023-03-03T02:42:07;4.35;;;3.95;;
75984;SDS011;65033;44.660;37.758;2023-03-03T02:43:19;4.90;;;4.40;;
75984;SDS011;65033;44.660;37.758;2023-03-03T02:44:26;4.85;;;4.35;;
75984;SDS011;65033;44.660;37.758;2023-03-03T02:45:32;4.43;;;4.03;;
75984;SDS011;65033;44.660;37.758;2023-03-03T02:46:36;4.97;;;4.28;;
75984;SDS011;65033;44.660;37.758;2023-03-03T02:47:40;4.40;;;4.00;;
75984;SDS011;65033;44.660;37.758;2023-03-03T02:48:50;4.40;;;4.00;;
75984;SDS011;65033;44.660;37.758;2023-03-03T02:49:53;4.57;;;4.18;;
75984;SDS011;65033;44.660;37.758;2023-03-03T02:50:56;5.25;;;4.03;;
75984;SDS011;65033;44.660;37.758;2023-03-03T02:52:00;5.47;;;4.25;;
75984;SDS011;65033;44.660;37.758;2023-03-03T02:53:04;5.35;;;4.15;;
75984;SDS011;65033;44.660;37.758;2023-03-03T02:54:08;4.80;;;4.30;;
75984;SDS011;65033;44.660;37.758;2023-03-03T02:55:13;4.63;;;3.92;;
75984;SDS011;65033;44.660;37.758;2023-03-03T02:56:18;4.55;;;4.15;;
75984;SDS011;65033;44.660;37.758;2023-03-03T02:57:23;4.47;;;4.07;;
75984;SDS011;65033;44.660;37.758;2023-03-03T02:58:28;4.55;;;4.10;;
75984;SDS011;65033;44.660;37.758;2023-03-03T02:59:31;4.93;;;4.43;;
75984;SDS011;65033;44.660;37.758;2023-03-03T03:00:42;4.20;;;3.80;;
75984;SDS011;65033;44.660;37.758;2023-03-03T03:01:53;4.97;;;4.05;;
75984;SDS011;65033;44.660;37.758;2023-03-03T03:02:57;4.32;;;3.92;;
75984;SDS011;65033;44.660;37.758;2023-03-03T03:04:00;4.90;;;4.30;;
75984;SDS011;65033;44.660;37.758;2023-03-03T03:05:04;4.95;;;4.38;;
75984;SDS011;65033;44.660;37.758;2023-03-03T03:06:07;4.47;;;4.07;;
75984;SDS011;65033;44.660;37.758;2023-03-03T03:07:11;4.43;;;4.03;;
75984;SDS011;65033;44.660;37.758;2023-03-03T03:08:14;5.07;;;4.28;;
75984;SDS011;65033;44.660;37.758;2023-03-03T03:09:18;4.28;;;3.88;;
75984;SDS011;65033;44.660;37.758;2023-03-03T03:10:24;4.55;;;4.05;;
75984;SDS011;65033;44.660;37.758;2023-03-03T03:11:27;4.40;;;4.00;;
75984;SDS011;65033;44.660;37.758;2023-03-03T03:12:32;4.68;;;4.00;;
75984;SDS011;65033;44.660;37.758;2023-03-03T03:13:35;5.20;;;4.28;;
75984;SDS011;65033;44.660;37.758;2023-03-03T03:14:39;4.82;;;4.18;;
75984;SDS011;65033;44.660;37.758;2023-03-03T03:15:44;4.88;;;4.32;;
75984;SDS011;65033;44.660;37.758;2023-03-03T03:16:48;4.63;;;3.90;;
75984;SDS011;65033;44.660;37.758;2023-03-03T03:17:51;5.43;;;4.43;;
75984;SDS011;65033;44.660;37.758;2023-03-03T03:18:55;4.68;;;4.28;;
75984;SDS011;65033;44.660;37.758;2023-03-03T03:19:58;4.30;;;3.90;;
75984;SDS011;65033;44.660;37.758;2023-03-03T03:21:04;4.20;;;3.75;;
75984;SDS011;65033;44.660;37.758;2023-03-03T03:22:09;4.47;;;4.07;;
75984;SDS011;65033;44.660;37.758;2023-03-03T03:23:14;4.45;;;4.05;;
75984;SDS011;65033;44.660;37.758;2023-03-03T03:24:17;5.07;;;4.18;;
75984;SDS011;65033;44.660;37.758;2023-03-03T03:25:27;4.72;;;3.95;;
75984;SDS011;65033;44.660;37.758;2023-03-03T03:26:31;4.43;;;4.00;;
75984;SDS011;65033;44.660;37.758;2023-03-03T03:27:36;4.88;;;4.25;;
75984;SDS011;65033;44.660;37.758;2023-03-03T03:28:39;4.80;;;4.25;;
75984;SDS011;65033;44.660;37.758;2023-03-03T03:29:43;4.43;;;4.03;;
75984;SDS011;65033;44.660;37.758;2023-03-03T03:30:47;4.88;;;4.38;;
75984;SDS011;65033;44.660;37.758;2023-03-03T03:31:54;4.82;;;4.32;;
75984;SDS011;65033;44.660;37.758;2023-03-03T03:32:57;4.93;;;4.03;;
75984;SDS011;65033;44.660;37.758;2023-03-03T03:34:01;4.90;;;4.00;;
75984;SDS011;65033;44.660;37.758;2023-03-03T03:35:05;3.97;;;3.67;;
75984;SDS011;65033;44.660;37.758;2023-03-03T03:36:09;4.13;;;3.72;;
75984;SDS011;65033;44.660;37.758;2023-03-03T03:37:13;4.43;;;4.03;;
75984;SDS011;65033;44.660;37.758;2023-03-03T03:38:18;4.95;;;4.40;;
75984;SDS011;65033;44.660;37.758;2023-03-03T03:39:22;5.03;;;4.20;;
75984;SDS011;65033;44.660;37.758;2023-03-03T03:40:27;4.15;;;3.75;;
75984;SDS011;65033;44.660;37.758;2023-03-03T03:41:30;5.03;;;4.28;;
75984;SDS011;65033;44.660;37.758;2023-03-03T03:42:33;4.50;;;3.97;;
75984;SDS011;65033;44.660;37.758;2023-03-03T03:43:38;4.50;;;4.10;;
75984;SDS011;65033;44.660;37.758;2023-03-03T03:44:41;4.53;;;4.13;;
75984;SDS011;65033;44.660;37.758;2023-03-03T03:45:45;4.68;;;4.15;;
75984;SDS011;65033;44.660;37.758;2023-03-03T03:46:49;4.68;;;4.03;;
75984;SDS011;65033;44.660;37.758;2023-03-03T03:47:53;4.93;;;4.07;;
75984;SDS011;65033;44.660;37.758;2023-03-03T03:48:57;4.93;;;4.43;;
75984;SDS011;65033;44.660;37.758;2023-03-03T03:50:01;4.50;;;4.10;;
75984;SDS011;65033;44.660;37.758;2023-03-03T03:51:04;5.57;;;4.40;;
75984;SDS011;65033;44.660;37.758;2023-03-03T03:52:08;9.60;;;8.60;;
75984;SDS011;65033;44.660;37.758;2023-03-03T03:53:12;10.43;;;9.30;;
75984;SDS011;65033;44.660;37.758;2023-03-03T03:54:15;11.40;;;10.27;;
75984;SDS011;65033;44.660;37.758;2023-03-03T03:55:18;7.55;;;6.85;;
75984;SDS011;65033;44.660;37.758;2023-03-03T03:56:24;5.95;;;5.35;;
75984;SDS011;65033;44.660;37.758;2023-03-03T03:57:30;6.38;;;5.43;;
75984;SDS011;65033;44.660;37.758;2023-03-03T03:58:33;6.10;;;5.50;;
75984;SDS011;65033;44.660;37.758;2023-03-03T03:59:42;6.85;;;6.13;;
75984;SDS011;65033;44.660;37.758;2023-03-03T04:00:46;6.70;;;6.00;;
75984;SDS011;65033;44.660;37.758;2023-03-03T04:01:51;7.45;;;5.78;;
75984;SDS011;65033;44.660;37.758;2023-03-03T04:02:56;6.60;;;5.45;;
75984;SDS011;65033;44.660;37.758;2023-03-03T04:03:59;5.95;;;5.35;;
75984;SDS011;65033;44.660;37.758;2023-03-03T04:05:04;7.05;;;5.82;;
75984;SDS011;65033;44.660;37.758;2023-03-03T04:06:09;6.88;;;6.25;;
75984;SDS011;65033;44.660;37.758;2023-03-03T04:07:12;6.53;;;5.93;;
75984;SDS011;65033;44.660;37.758;2023-03-03T04:08:16;6.90;;;6.15;;
75984;SDS011;65033;44.660;37.758;2023-03-03T04:09:19;6.95;;;5.88;;
75984;SDS011;65033;44.660;37.758;2023-03-03T04:10:22;6.90;;;6.22;;
75984;SDS011;65033;44.660;37.758;2023-03-03T04:11:27;7.40;;;6.70;;
75984;SDS011;65033;44.660;37.758;2023-03-03T04:12:30;9.25;;;8.15;;
75984;SDS011;65033;44.660;37.758;2023-03-03T04:13:43;10.02;;;8.93;;
75984;SDS011;65033;44.660;37.758;2023-03-03T04:14:48;9.30;;;8.32;;
75984;SDS011;65033;44.660;37.758;2023-03-03T04:15:51;9.02;;;8.13;;
75984;SDS011;65033;44.660;37.758;2023-03-03T04:16:55;9.57;;;8.57;;
75984;SDS011;65033;44.660;37.758;2023-03-03T04:17:59;9.43;;;8.52;;
75984;SDS011;65033;44.660;37.758;2023-03-03T04:19:02;9.43;;;8.52;;
75984;SDS011;65033;44.660;37.758;2023-03-03T04:20:09;10.52;;;8.65;;
75984;SDS011;65033;44.660;37.758;2023-03-03T04:21:17;9.70;;;8.63;;
75984;SDS011;65033;44.660;37.758;2023-03-03T04:22:20;11.45;;;9.20;;
75984;SDS011;65033;44.660;37.758;2023-03-03T04:23:24;12.07;;;9.13;;
75984;SDS011;65033;44.660;37.758;2023-03-03T04:24:27;10.35;;;9.25;;
75984;SDS011;65033;44.660;37.758;2023-03-03T04:25:31;10.18;;;9.13;;
75984;SDS011;65033;44.660;37.758;2023-03-03T04:26:34;10.20;;;9.20;;
75984;SDS011;65033;44.660;37.758;2023-03-03T04:27:39;10.73;;;9.43;;
75984;SDS011;65033;44.660;37.758;2023-03-03T04:28:42;11.35;;;10.15;;
75984;SDS011;65033;44.660;37.758;2023-03-03T04:29:47;10.82;;;9.45;;
75984;SDS011;65033;44.660;37.758;2023-03-03T04:30:51;10.63;;;9.52;;
75984;SDS011;65033;44.660;37.758;2023-03-03T04:31:55;10.15;;;9.15;;
75984;SDS011;65033;44.660;37.758;2023-03-03T04:32:59;10.85;;;9.75;;
75984;SDS011;65033;44.660;37.758;2023-03-03T04:34:03;11.13;;;9.93;;
75984;SDS011;65033;44.660;37.758;2023-03-03T04:35:07;9.93;;;8.80;;
75984;SDS011;65033;44.660;37.758;2023-03-03T04:36:14;10.45;;;9.40;;
75984;SDS011;65033;44.660;37.758;2023-03-03T04:37:17;10.13;;;9.13;;
75984;SDS011;65033;44.660;37.758;2023-03-03T04:38:22;10.68;;;9.57;;
75984;SDS011;65033;44.660;37.758;2023-03-03T04:39:26;10.90;;;9.90;;
75984;SDS011;65033;44.660;37.758;2023-03-03T04:40:31;10.60;;;9.60;;
75984;SDS011;65033;44.660;37.758;2023-03-03T04:41:35;10.80;;;9.70;;
75984;SDS011;65033;44.660;37.758;2023-03-03T04:42:39;10.32;;;9.23;;
75984;SDS011;65033;44.660;37.758;2023-03-03T04:43:43;10.85;;;9.75;;
75984;SDS011;65033;44.660;37.758;2023-03-03T04:44:49;10.50;;;9.40;;
75984;SDS011;65033;44.660;37.758;2023-03-03T04:45:52;11.45;;;9.95;;
75984;SDS011;65033;44.660;37.758;2023-03-03T04:46:56;10.95;;;9.50;;
75984;SDS011;65033;44.660;37.758;2023-03-03T04:47:59;13.80;;;12.07;;
75984;SDS011;65033;44.660;37.758;2023-03-03T04:49:04;14.15;;;12.10;;
75984;SDS011;65033;44.660;37.758;2023-03-03T04:50:12;13.60;;;12.20;;
75984;SDS011;65033;44.660;37.758;2023-03-03T04:51:16;13.73;;;12.32;;
75984;SDS011;65033;44.660;37.758;2023-03-03T04:52:20;14.00;;;12.70;;
75984;SDS011;65033;44.660;37.758;2023-03-03T04:53:23;12.25;;;10.95;;
75984;SDS011;65033;44.660;37.758;2023-03-03T04:54:26;12.73;;;11.25;;
75984;SDS011;65033;44.660;37.758;2023-03-03T04:55:29;12.20;;;10.88;;
75984;SDS011;65033;44.660;37.758;2023-03-03T04:56:33;12.38;;;10.88;;
75984;SDS011;65033;44.660;37.758;2023-03-03T04:57:36;13.00;;;11.60;;
75984;SDS011;65033;44.660;37.758;2023-03-03T04:58:40;10.98;;;9.88;;
75984;SDS011;65033;44.660;37.758;2023-03-03T04:59:43;11.70;;;10.50;;
75984;SDS011;65033;44.660;37.758;2023-03-03T05:00:51;12.70;;;11.00;;
75984;SDS011;65033;44.660;37.758;2023-03-03T05:01:56;11.93;;;10.73;;
75984;SDS011;65033;44.660;37.758;2023-03-03T05:03:00;12.05;;;10.75;;
75984;SDS011;65033;44.660;37.758;2023-03-03T05:04:06;12.13;;;10.80;;
75984;SDS011;65033;44.660;37.758;2023-03-03T05:05:09;11.38;;;10.18;;
75984;SDS011;65033;44.660;37.758;2023-03-03T05:06:13;12.55;;;11.20;;
75984;SDS011;65033;44.660;37.758;2023-03-03T05:07:16;13.77;;;10.50;;
75984;SDS011;65033;44.660;37.758;2023-03-03T05:08:21;11.93;;;10.75;;
75984;SDS011;65033;44.660;37.758;2023-03-03T05:09:24;11.27;;;10.18;;
75984;SDS011;65033;44.660;37.758;2023-03-03T05:10:28;10.75;;;9.77;;
75984;SDS011;65033;44.660;37.758;2023-03-03T05:11:31;12.02;;;10.93;;
75984;SDS011;65033;44.660;37.758;2023-03-03T05:12:34;12.15;;;10.82;;
75984;SDS011;65033;44.660;37.758;2023-03-03T05:13:37;11.50;;;10.43;;
75984;SDS011;65033;44.660;37.758;2023-03-03T05:14:41;11.63;;;10.30;;
75984;SDS011;65033;44.660;37.758;2023-03-03T05:15:49;11.80;;;10.60;;
75984;SDS011;65033;44.660;37.758;2023-03-03T05:16:53;12.07;;;10.80;;
75984;SDS011;65033;44.660;37.758;2023-03-03T05:17:56;11.20;;;10.02;;
75984;SDS011;65033;44.660;37.758;2023-03-03T05:19:00;12.00;;;10.80;;
75984;SDS011;65033;44.660;37.758;2023-03-03T05:20:03;12.88;;;11.57;;
75984;SDS011;65033;44.660;37.758;2023-03-03T05:21:09;14.43;;;12.88;;
75984;SDS011;65033;44.660;37.758;2023-03-03T05:22:13;14.93;;;13.32;;
75984;SDS011;65033;44.660;37.758;2023-03-03T05:23:16;15.20;;;13.57;;
75984;SDS011;65033;44.660;37.758;2023-03-03T05:24:19;15.30;;;13.77;;
75984;SDS011;65033;44.660;37.758;2023-03-03T05:25:23;14.43;;;12.30;;
75984;SDS011;65033;44.660;37.758;2023-03-03T05:26:26;12.35;;;10.88;;
75984;SDS011;65033;44.660;37.758;2023-03-03T05:27:30;12.43;;;11.23;;
75984;SDS011;65033;44.660;37.758;2023-03-03T05:28:33;13.30;;;11.90;;
75984;SDS011;65033;44.660;37.758;2023-03-03T05:29:36;13.10;;;11.73;;
75984;SDS011;65033;44.660;37.758;2023-03-03T05:30:39;12.70;;;11.25;;
75984;SDS011;65033;44.660;37.758;2023-03-03T05:31:44;12.60;;;11.30;;
75984;SDS011;65033;44.660;37.758;2023-03-03T05:32:47;13.35;;;12.02;;
75984;SDS011;65033;44.660;37.758;2023-03-03T05:33:50;12.85;;;11.43;;
75984;SDS011;65033;44.660;37.758;2023-03-03T05:34:54;13.25;;;11.73;;
75984;SDS011;65033;44.660;37.758;2023-03-03T05:35:57;13.57;;;12.18;;
75984;SDS011;65033;44.660;37.758;2023-03-03T05:37:00;11.95;;;10.75;;
75984;SDS011;65033;44.660;37.758;2023-03-03T05:38:05;12.77;;;11.52;;
75984;SDS011;65033;44.660;37.758;2023-03-03T05:39:08;12.10;;;10.77;;
75984;SDS011;65033;44.660;37.758;2023-03-03T05:40:11;12.45;;;11.15;;
75984;SDS011;65033;44.660;37.758;2023-03-03T05:41:16;12.45;;;11.15;;
75984;SDS011;65033;44.660;37.758;2023-03-03T05:42:19;13.20;;;10.73;;
75984;SDS011;65033;44.660;37.758;2023-03-03T05:43:23;12.20;;;10.52;;
75984;SDS011;65033;44.660;37.758;2023-03-03T05:44:26;12.77;;;11.35;;
75984;SDS011;65033;44.660;37.758;2023-03-03T05:45:30;11.90;;;10.73;;
75984;SDS011;65033;44.660;37.758;2023-03-03T05:46:33;12.07;;;10.88;;
75984;SDS011;65033;44.660;37.758;2023-03-03T05:47:38;11.88;;;10.77;;
75984;SDS011;65033;44.660;37.758;2023-03-03T05:48:41;11.18;;;10.07;;
75984;SDS011;65033;44.660;37.758;2023-03-03T05:49:44;10.80;;;9.70;;
75984;SDS011;65033;44.660;37.758;2023-03-03T05:50:47;12.35;;;10.02;;
75984;SDS011;65033;44.660;37.758;2023-03-03T05:51:51;12.93;;;10.68;;
75984;SDS011;65033;44.660;37.758;2023-03-03T05:52:54;12.98;;;11.77;;
75984;SDS011;65033;44.660;37.758;2023-03-03T05:53:57;15.75;;;14.10;;
75984;SDS011;65033;44.660;37.758;2023-03-03T05:55:00;16.60;;;14.90;;
75984;SDS011;65033;44.660;37.758;2023-03-03T05:56:04;15.80;;;14.30;;
75984;SDS011;65033;44.660;37.758;2023-03-03T05:57:07;15.30;;;13.45;;
75984;SDS011;65033;44.660;37.758;2023-03-03T05:58:11;12.95;;;11.63;;
75984;SDS011;65033;44.660;37.758;2023-03-03T05:59:14;12.98;;;11.65;;
75984;SDS011;65033;44.660;37.758;2023-03-03T06:00:18;13.43;;;11.73;;
75984;SDS011;65033;44.660;37.758;2023-03-03T06:01:21;12.18;;;10.98;;
75984;SDS011;65033;44.660;37.758;2023-03-03T06:02:26;13.98;;;11.85;;
75984;SDS011;65033;44.660;37.758;2023-03-03T06:03:31;15.38;;;11.07;;
75984;SDS011;65033;44.660;37.758;2023-03-03T06:04:34;13.40;;;12.00;;
75984;SDS011;65033;44.660;37.758;2023-03-03T06:05:37;12.30;;;10.85;;
75984;SDS011;65033;44.660;37.758;2023-03-03T06:06:41;12.57;;;11.27;;
75984;SDS011;65033;44.660;37.758;2023-03-03T06:07:44;12.98;;;11.77;;
75984;SDS011;65033;44.660;37.758;2023-03-03T06:08:47;12.90;;;11.60;;
75984;SDS011;65033;44.660;37.758;2023-03-03T06:09:51;12.63;;;11.38;;
75984;SDS011;65033;44.660;37.758;2023-03-03T06:10:55;12.02;;;10.77;;
75984;SDS011;65033;44.660;37.758;2023-03-03T06:11:58;15.55;;;10.93;;
75984;SDS011;65033;44.660;37.758;2023-03-03T06:13:02;11.88;;;10.75;;
75984;SDS011;65033;44.660;37.758;2023-03-03T06:14:05;12.70;;;10.82;;
75984;SDS011;65033;44.660;37.758;2023-03-03T06:15:09;11.82;;;10.55;;
75984;SDS011;65033;44.660;37.758;2023-03-03T06:16:13;12.18;;;10.82;;
75984;SDS011;65033;44.660;37.758;2023-03-03T06:17:17;12.23;;;10.82;;
75984;SDS011;65033;44.660;37.758;2023-03-03T06:18:20;12.50;;;10.25;;
75984;SDS011;65033;44.660;37.758;2023-03-03T06:19:26;11.05;;;9.85;;
75984;SDS011;65033;44.660;37.758;2023-03-03T06:20:29;13.40;;;10.35;;
75984;SDS011;65033;44.660;37.758;2023-03-03T06:21:33;16.58;;;10.32;;
75984;SDS011;65033;44.660;37.758;2023-03-03T06:22:37;12.60;;;10.07;;
75984;SDS011;65033;44.660;37.758;2023-03-03T06:23:40;14.32;;;10.10;;
75984;SDS011;65033;44.660;37.758;2023-03-03T06:24:44;11.77;;;9.98;;
75984;SDS011;65033;44.660;37.758;2023-03-03T06:25:47;12.68;;;9.93;;
75984;SDS011;65033;44.660;37.758;2023-03-03T06:26:50;12.63;;;10.13;;